sensor_id;sensor_type;location;lat;lon;timestamp;P1;durP1;ratioP1;P2;durP2;ratioP2
51312;SDS011;37397;53.226;10.400;2022-09-01T00:01:58;5.45;;;2.03;;
51312;SDS011;37397;53.226;10.400;2022-09-01T00:04:26;2.65;;;1.73;;
51312;SDS011;37397;53.226;10.400;2022-09-01T00:06:53;3.65;;;1.92;;
51312;SDS011;37397;53.226;10.400;2022-09-01T00:09:21;2.20;;;1.60;;
51312;SDS011;37397;53.226;10.400;2022-09-01T00:11:50;3.67;;;1.67;;
51312;SDS011;37397;53.226;10.400;2022-09-01T00:14:19;1.77;;;1.40;;
51312;SDS011;37397;53.226;10.400;2022-09-01T00:17:00;3.03;;;1.50;;
51312;SDS011;37397;53.226;10.400;2022-09-01T00:19:28;2.70;;;1.60;;
51312;SDS011;37397;53.226;10.400;2022-09-01T00:21:55;2.10;;;1.60;;
51312;SDS011;37397;53.226;10.400;2022-09-01T00:24:22;3.28;;;1.50;;
51312;SDS011;37397;53.226;10.400;2022-09-01T00:26:51;2.30;;;1.60;;
51312;SDS011;37397;53.226;10.400;2022-09-01T00:29:19;3.10;;;1.52;;
51312;SDS011;37397;53.226;10.400;2022-09-01T00:31:45;1.88;;;1.40;;
51312;SDS011;37397;53.226;10.400;2022-09-01T00:34:12;2.00;;;1.48;;
51312;SDS011;37397;53.226;10.400;2022-09-01T00:36:39;1.30;;;1.20;;
51312;SDS011;37397;53.226;10.400;2022-09-01T00:39:05;1.85;;;1.42;;
51312;SDS011;37397;53.226;10.400;2022-09-01T00:41:33;5.03;;;1.50;;
51312;SDS011;37397;53.226;10.400;2022-09-01T00:44:08;3.10;;;1.50;;
51312;SDS011;37397;53.226;10.400;2022-09-01T00:46:38;1.80;;;1.27;;
51312;SDS011;37397;53.226;10.400;2022-09-01T00:49:28;2.38;;;1.50;;
51312;SDS011;37397;53.226;10.400;2022-09-01T00:52:03;1.95;;;1.48;;
51312;SDS011;37397;53.226;10.400;2022-09-01T00:54:50;2.50;;;1.27;;
51312;SDS011;37397;53.226;10.400;2022-09-01T00:57:21;2.55;;;1.45;;
51312;SDS011;37397;53.226;10.400;2022-09-01T00:59:49;2.78;;;1.42;;
51312;SDS011;37397;53.226;10.400;2022-09-01T01:02:21;3.05;;;1.70;;
51312;SDS011;37397;53.226;10.400;2022-09-01T01:04:49;3.85;;;1.50;;
51312;SDS011;37397;53.226;10.400;2022-09-01T01:07:18;2.03;;;1.45;;
51312;SDS011;37397;53.226;10.400;2022-09-01T01:09:47;2.90;;;1.33;;
51312;SDS011;37397;53.226;10.400;2022-09-01T01:12:15;3.58;;;1.38;;
51312;SDS011;37397;53.226;10.400;2022-09-01T01:14:44;2.35;;;1.40;;
51312;SDS011;37397;53.226;10.400;2022-09-01T01:17:13;2.78;;;1.50;;
51312;SDS011;37397;53.226;10.400;2022-09-01T01:19:41;2.40;;;1.13;;
51312;SDS011;37397;53.226;10.400;2022-09-01T01:22:48;1.85;;;1.23;;
51312;SDS011;37397;53.226;10.400;2022-09-01T01:25:29;1.80;;;1.20;;
51312;SDS011;37397;53.226;10.400;2022-09-01T01:28:05;2.03;;;1.30;;
51312;SDS011;37397;53.226;10.400;2022-09-01T01:30:35;2.97;;;1.23;;
51312;SDS011;37397;53.226;10.400;2022-09-01T01:33:05;2.35;;;1.30;;
51312;SDS011;37397;53.226;10.400;2022-09-01T01:35:33;2.28;;;1.17;;
51312;SDS011;37397;53.226;10.400;2022-09-01T01:38:01;3.17;;;1.20;;
51312;SDS011;37397;53.226;10.400;2022-09-01T01:40:33;1.70;;;1.20;;
51312;SDS011;37397;53.226;10.400;2022-09-01T01:43:00;2.50;;;1.10;;
51312;SDS011;37397;53.226;10.400;2022-09-01T01:45:28;1.77;;;1.17;;
51312;SDS011;37397;53.226;10.400;2022-09-01T01:47:56;1.45;;;1.15;;
51312;SDS011;37397;53.226;10.400;2022-09-01T01:50:27;1.65;;;1.17;;
51312;SDS011;37397;53.226;10.400;2022-09-01T01:53:01;3.33;;;1.30;;
51312;SDS011;37397;53.226;10.400;2022-09-01T01:55:38;1.65;;;1.17;;
51312;SDS011;37397;53.226;10.400;2022-09-01T01:58:06;1.85;;;1.40;;
51312;SDS011;37397;53.226;10.400;2022-09-01T02:00:35;4.10;;;1.20;;
51312;SDS011;37397;53.226;10.400;2022-09-01T02:03:02;2.80;;;1.27;;
51312;SDS011;37397;53.226;10.400;2022-09-01T02:05:29;2.08;;;1.25;;
51312;SDS011;37397;53.226;10.400;2022-09-01T02:07:59;2.75;;;1.38;;
51312;SDS011;37397;53.226;10.400;2022-09-01T02:10:31;1.85;;;1.10;;
51312;SDS011;37397;53.226;10.400;2022-09-01T02:13:04;2.28;;;1.30;;
51312;SDS011;37397;53.226;10.400;2022-09-01T02:15:33;2.13;;;1.35;;
51312;SDS011;37397;53.226;10.400;2022-09-01T02:18:07;2.28;;;1.00;;
51312;SDS011;37397;53.226;10.400;2022-09-01T02:20:36;1.75;;;1.10;;
51312;SDS011;37397;53.226;10.400;2022-09-01T02:23:02;2.15;;;1.30;;
51312;SDS011;37397;53.226;10.400;2022-09-01T02:25:37;2.55;;;1.30;;
51312;SDS011;37397;53.226;10.400;2022-09-01T02:28:28;3.25;;;1.15;;
51312;SDS011;37397;53.226;10.400;2022-09-01T02:30:58;2.00;;;1.20;;
51312;SDS011;37397;53.226;10.400;2022-09-01T02:33:28;1.75;;;1.20;;
51312;SDS011;37397;53.226;10.400;2022-09-01T02:35:57;2.60;;;1.40;;
51312;SDS011;37397;53.226;10.400;2022-09-01T02:38:28;2.05;;;1.23;;
51312;SDS011;37397;53.226;10.400;2022-09-01T02:40:56;1.48;;;1.20;;
51312;SDS011;37397;53.226;10.400;2022-09-01T02:43:24;1.95;;;1.27;;
51312;SDS011;37397;53.226;10.400;2022-09-01T02:45:55;3.22;;;1.50;;
51312;SDS011;37397;53.226;10.400;2022-09-01T02:48:29;2.88;;;1.38;;
51312;SDS011;37397;53.226;10.400;2022-09-01T02:51:03;4.10;;;1.40;;
51312;SDS011;37397;53.226;10.400;2022-09-01T02:53:35;6.60;;;1.33;;
51312;SDS011;37397;53.226;10.400;2022-09-01T02:56:05;1.92;;;1.17;;
51312;SDS011;37397;53.226;10.400;2022-09-01T02:58:37;1.75;;;1.25;;
51312;SDS011;37397;53.226;10.400;2022-09-01T03:01:19;3.28;;;1.30;;
51312;SDS011;37397;53.226;10.400;2022-09-01T03:03:52;2.55;;;1.48;;
51312;SDS011;37397;53.226;10.400;2022-09-01T03:06:20;2.45;;;1.10;;
51312;SDS011;37397;53.226;10.400;2022-09-01T03:08:50;1.90;;;1.08;;
51312;SDS011;37397;53.226;10.400;2022-09-01T03:11:18;2.97;;;1.25;;
51312;SDS011;37397;53.226;10.400;2022-09-01T03:13:45;2.13;;;1.38;;
51312;SDS011;37397;53.226;10.400;2022-09-01T03:16:12;1.52;;;1.20;;
51312;SDS011;37397;53.226;10.400;2022-09-01T03:18:38;2.38;;;1.20;;
51312;SDS011;37397;53.226;10.400;2022-09-01T03:21:06;1.70;;;1.20;;
51312;SDS011;37397;53.226;10.400;2022-09-01T03:23:34;2.30;;;1.20;;
51312;SDS011;37397;53.226;10.400;2022-09-01T03:26:01;1.45;;;1.20;;
51312;SDS011;37397;53.226;10.400;2022-09-01T03:28:28;3.72;;;1.30;;
51312;SDS011;37397;53.226;10.400;2022-09-01T03:30:56;1.58;;;1.30;;
51312;SDS011;37397;53.226;10.400;2022-09-01T03:33:23;3.08;;;1.10;;
51312;SDS011;37397;53.226;10.400;2022-09-01T03:35:53;3.88;;;1.35;;
51312;SDS011;37397;53.226;10.400;2022-09-01T03:38:20;2.88;;;1.50;;
51312;SDS011;37397;53.226;10.400;2022-09-01T03:40:52;3.63;;;1.40;;
51312;SDS011;37397;53.226;10.400;2022-09-01T03:43:24;2.38;;;1.20;;
51312;SDS011;37397;53.226;10.400;2022-09-01T03:46:01;1.80;;;1.20;;
51312;SDS011;37397;53.226;10.400;2022-09-01T03:48:28;1.77;;;1.30;;
51312;SDS011;37397;53.226;10.400;2022-09-01T03:50:57;1.48;;;1.10;;
51312;SDS011;37397;53.226;10.400;2022-09-01T03:53:32;2.50;;;1.40;;
51312;SDS011;37397;53.226;10.400;2022-09-01T03:56:03;2.42;;;1.08;;
51312;SDS011;37397;53.226;10.400;2022-09-01T03:58:31;2.60;;;1.13;;
51312;SDS011;37397;53.226;10.400;2022-09-01T04:00:59;1.50;;;1.30;;
51312;SDS011;37397;53.226;10.400;2022-09-01T04:03:29;1.98;;;1.17;;
51312;SDS011;37397;53.226;10.400;2022-09-01T04:06:01;2.75;;;1.30;;
51312;SDS011;37397;53.226;10.400;2022-09-01T04:08:29;2.75;;;1.17;;
51312;SDS011;37397;53.226;10.400;2022-09-01T04:11:01;3.33;;;1.27;;
51312;SDS011;37397;53.226;10.400;2022-09-01T04:13:33;3.60;;;1.20;;
51312;SDS011;37397;53.226;10.400;2022-09-01T04:16:02;2.13;;;1.17;;
51312;SDS011;37397;53.226;10.400;2022-09-01T04:18:36;2.08;;;1.30;;
51312;SDS011;37397;53.226;10.400;2022-09-01T04:21:05;3.72;;;1.20;;
51312;SDS011;37397;53.226;10.400;2022-09-01T04:23:34;2.55;;;1.33;;
51312;SDS011;37397;53.226;10.400;2022-09-01T04:26:09;1.52;;;1.23;;
51312;SDS011;37397;53.226;10.400;2022-09-01T04:28:44;3.75;;;1.02;;
51312;SDS011;37397;53.226;10.400;2022-09-01T04:31:17;3.28;;;1.30;;
51312;SDS011;37397;53.226;10.400;2022-09-01T04:33:49;3.22;;;1.17;;
51312;SDS011;37397;53.226;10.400;2022-09-01T04:38:52;2.78;;;1.45;;
51312;SDS011;37397;53.226;10.400;2022-09-01T04:41:29;2.47;;;1.20;;
51312;SDS011;37397;53.226;10.400;2022-09-01T04:44:00;1.80;;;1.40;;
51312;SDS011;37397;53.226;10.400;2022-09-01T04:46:34;1.95;;;1.17;;
51312;SDS011;37397;53.226;10.400;2022-09-01T04:49:04;1.73;;;1.38;;
51312;SDS011;37397;53.226;10.400;2022-09-01T04:51:39;2.20;;;1.17;;
51312;SDS011;37397;53.226;10.400;2022-09-01T04:54:09;2.58;;;1.25;;
51312;SDS011;37397;53.226;10.400;2022-09-01T04:56:43;1.65;;;1.30;;
51312;SDS011;37397;53.226;10.400;2022-09-01T04:59:13;2.65;;;1.30;;
51312;SDS011;37397;53.226;10.400;2022-09-01T05:01:48;2.10;;;1.30;;
51312;SDS011;37397;53.226;10.400;2022-09-01T05:04:20;2.70;;;1.25;;
51312;SDS011;37397;53.226;10.400;2022-09-01T05:06:51;1.45;;;1.20;;
51312;SDS011;37397;53.226;10.400;2022-09-01T05:09:35;1.97;;;1.30;;
51312;SDS011;37397;53.226;10.400;2022-09-01T05:12:20;3.53;;;1.50;;
51312;SDS011;37397;53.226;10.400;2022-09-01T05:14:50;1.33;;;1.20;;
51312;SDS011;37397;53.226;10.400;2022-09-01T05:17:19;1.80;;;1.35;;
51312;SDS011;37397;53.226;10.400;2022-09-01T05:19:48;3.40;;;1.40;;
51312;SDS011;37397;53.226;10.400;2022-09-01T05:22:16;2.60;;;1.65;;
51312;SDS011;37397;53.226;10.400;2022-09-01T05:25:00;1.73;;;1.20;;
51312;SDS011;37397;53.226;10.400;2022-09-01T05:27:30;2.50;;;1.38;;
51312;SDS011;37397;53.226;10.400;2022-09-01T05:29:57;1.98;;;1.20;;
51312;SDS011;37397;53.226;10.400;2022-09-01T05:32:28;2.50;;;1.35;;
51312;SDS011;37397;53.226;10.400;2022-09-01T05:34:54;1.23;;;1.00;;
51312;SDS011;37397;53.226;10.400;2022-09-01T05:37:22;3.42;;;1.40;;
51312;SDS011;37397;53.226;10.400;2022-09-01T05:39:48;2.50;;;1.30;;
51312;SDS011;37397;53.226;10.400;2022-09-01T05:42:15;2.15;;;1.30;;
51312;SDS011;37397;53.226;10.400;2022-09-01T05:44:42;2.90;;;1.25;;
51312;SDS011;37397;53.226;10.400;2022-09-01T05:47:13;4.53;;;1.80;;
51312;SDS011;37397;53.226;10.400;2022-09-01T05:49:48;2.53;;;1.40;;
51312;SDS011;37397;53.226;10.400;2022-09-01T05:52:15;4.93;;;1.60;;
51312;SDS011;37397;53.226;10.400;2022-09-01T05:54:42;3.38;;;1.48;;
51312;SDS011;37397;53.226;10.400;2022-09-01T05:57:09;2.40;;;1.65;;
51312;SDS011;37397;53.226;10.400;2022-09-01T05:59:56;2.08;;;1.30;;
51312;SDS011;37397;53.226;10.400;2022-09-01T06:02:24;3.63;;;1.48;;
51312;SDS011;37397;53.226;10.400;2022-09-01T06:04:53;3.28;;;1.67;;
51312;SDS011;37397;53.226;10.400;2022-09-01T06:07:29;2.05;;;1.48;;
51312;SDS011;37397;53.226;10.400;2022-09-01T06:09:59;4.80;;;1.90;;
51312;SDS011;37397;53.226;10.400;2022-09-01T06:12:25;4.63;;;1.80;;
51312;SDS011;37397;53.226;10.400;2022-09-01T06:14:55;4.45;;;2.08;;
51312;SDS011;37397;53.226;10.400;2022-09-01T06:17:23;4.07;;;2.03;;
51312;SDS011;37397;53.226;10.400;2022-09-01T06:19:56;6.25;;;2.60;;
51312;SDS011;37397;53.226;10.400;2022-09-01T06:26:35;7.68;;;3.40;;
51312;SDS011;37397;53.226;10.400;2022-09-01T06:29:07;6.03;;;3.15;;
51312;SDS011;37397;53.226;10.400;2022-09-01T06:31:42;13.70;;;3.78;;
51312;SDS011;37397;53.226;10.400;2022-09-01T06:34:18;9.50;;;3.47;;
51312;SDS011;37397;53.226;10.400;2022-09-01T06:36:46;6.97;;;3.20;;
51312;SDS011;37397;53.226;10.400;2022-09-01T06:39:15;6.95;;;3.53;;
51312;SDS011;37397;53.226;10.400;2022-09-01T06:41:49;5.55;;;3.08;;
51312;SDS011;37397;53.226;10.400;2022-09-01T06:44:22;7.88;;;3.30;;
51312;SDS011;37397;53.226;10.400;2022-09-01T06:46:58;5.53;;;2.78;;
51312;SDS011;37397;53.226;10.400;2022-09-01T06:49:25;5.25;;;2.63;;
51312;SDS011;37397;53.226;10.400;2022-09-01T06:51:59;6.70;;;2.80;;
51312;SDS011;37397;53.226;10.400;2022-09-01T06:54:28;8.68;;;2.92;;
51312;SDS011;37397;53.226;10.400;2022-09-01T06:57:02;5.32;;;2.80;;
51312;SDS011;37397;53.226;10.400;2022-09-01T06:59:49;4.85;;;2.30;;
51312;SDS011;37397;53.226;10.400;2022-09-01T07:02:19;5.32;;;2.50;;
51312;SDS011;37397;53.226;10.400;2022-09-01T07:05:11;6.05;;;2.38;;
51312;SDS011;37397;53.226;10.400;2022-09-01T07:08:02;5.20;;;2.10;;
51312;SDS011;37397;53.226;10.400;2022-09-01T07:10:58;4.63;;;1.92;;
51312;SDS011;37397;53.226;10.400;2022-09-01T07:13:46;7.65;;;2.45;;
51312;SDS011;37397;53.226;10.400;2022-09-01T07:16:34;7.13;;;2.38;;
51312;SDS011;37397;53.226;10.400;2022-09-01T07:19:17;9.45;;;2.10;;
51312;SDS011;37397;53.226;10.400;2022-09-01T07:21:50;3.03;;;1.58;;
51312;SDS011;37397;53.226;10.400;2022-09-01T07:24:35;3.53;;;1.77;;
51312;SDS011;37397;53.226;10.400;2022-09-01T07:27:27;3.03;;;1.48;;
51312;SDS011;37397;53.226;10.400;2022-09-01T07:30:01;3.10;;;1.30;;
51312;SDS011;37397;53.226;10.400;2022-09-01T07:32:28;3.15;;;1.40;;
51312;SDS011;37397;53.226;10.400;2022-09-01T07:35:13;2.97;;;1.20;;
51312;SDS011;37397;53.226;10.400;2022-09-01T07:37:43;2.85;;;1.20;;
51312;SDS011;37397;53.226;10.400;2022-09-01T07:40:29;4.07;;;1.10;;
51312;SDS011;37397;53.226;10.400;2022-09-01T07:43:48;3.95;;;1.38;;
51312;SDS011;37397;53.226;10.400;2022-09-01T07:46:40;2.95;;;1.20;;
51312;SDS011;37397;53.226;10.400;2022-09-01T07:49:13;3.40;;;1.20;;
51312;SDS011;37397;53.226;10.400;2022-09-01T07:51:59;1.75;;;1.00;;
51312;SDS011;37397;53.226;10.400;2022-09-01T07:54:29;3.33;;;1.00;;
51312;SDS011;37397;53.226;10.400;2022-09-01T07:56:56;3.78;;;1.08;;
51312;SDS011;37397;53.226;10.400;2022-09-01T07:59:23;4.65;;;1.17;;
51312;SDS011;37397;53.226;10.400;2022-09-01T08:02:13;1.40;;;1.00;;
51312;SDS011;37397;53.226;10.400;2022-09-01T08:04:43;2.85;;;1.25;;
51312;SDS011;37397;53.226;10.400;2022-09-01T08:07:10;2.00;;;1.20;;
51312;SDS011;37397;53.226;10.400;2022-09-01T08:09:44;2.58;;;0.90;;
51312;SDS011;37397;53.226;10.400;2022-09-01T08:12:13;2.25;;;1.10;;
51312;SDS011;37397;53.226;10.400;2022-09-01T08:14:50;2.08;;;1.10;;
51312;SDS011;37397;53.226;10.400;2022-09-01T08:17:39;1.95;;;0.98;;
51312;SDS011;37397;53.226;10.400;2022-09-01T08:20:23;2.15;;;1.00;;
51312;SDS011;37397;53.226;10.400;2022-09-01T08:23:14;0.95;;;0.75;;
51312;SDS011;37397;53.226;10.400;2022-09-01T08:25:47;2.03;;;0.90;;
51312;SDS011;37397;53.226;10.400;2022-09-01T08:28:16;2.70;;;1.10;;
51312;SDS011;37397;53.226;10.400;2022-09-01T08:30:52;1.95;;;0.93;;
51312;SDS011;37397;53.226;10.400;2022-09-01T08:33:22;3.47;;;0.90;;
51312;SDS011;37397;53.226;10.400;2022-09-01T08:35:49;1.40;;;0.73;;
51312;SDS011;37397;53.226;10.400;2022-09-01T08:38:17;0.82;;;0.82;;
51312;SDS011;37397;53.226;10.400;2022-09-01T08:40:49;1.00;;;0.90;;
51312;SDS011;37397;53.226;10.400;2022-09-01T08:48:52;1.65;;;1.10;;
51312;SDS011;37397;53.226;10.400;2022-09-01T08:52:29;1.23;;;0.85;;
51312;SDS011;37397;53.226;10.400;2022-09-01T08:57:56;1.13;;;0.90;;
51312;SDS011;37397;53.226;10.400;2022-09-01T09:00:26;2.72;;;0.90;;
51312;SDS011;37397;53.226;10.400;2022-09-01T09:05:36;2.17;;;0.80;;
51312;SDS011;37397;53.226;10.400;2022-09-01T09:08:28;2.03;;;1.00;;
51312;SDS011;37397;53.226;10.400;2022-09-01T09:12:10;0.80;;;0.75;;
51312;SDS011;37397;53.226;10.400;2022-09-01T09:14:26;1.13;;;0.80;;
51312;SDS011;37397;53.226;10.400;2022-09-01T09:16:54;0.82;;;0.70;;
51312;SDS011;37397;53.226;10.400;2022-09-01T09:19:35;2.38;;;0.95;;
51312;SDS011;37397;53.226;10.400;2022-09-01T09:22:05;1.65;;;1.10;;
51312;SDS011;37397;53.226;10.400;2022-09-01T09:24:50;1.25;;;0.93;;
51312;SDS011;37397;53.226;10.400;2022-09-01T09:27:33;1.70;;;1.00;;
51312;SDS011;37397;53.226;10.400;2022-09-01T09:30:36;2.42;;;1.00;;
51312;SDS011;37397;53.226;10.400;2022-09-01T09:33:05;1.75;;;1.00;;
51312;SDS011;37397;53.226;10.400;2022-09-01T09:35:55;1.50;;;1.02;;
51312;SDS011;37397;53.226;10.400;2022-09-01T09:38:42;2.45;;;0.88;;
51312;SDS011;37397;53.226;10.400;2022-09-01T09:41:19;2.47;;;1.10;;
51312;SDS011;37397;53.226;10.400;2022-09-01T09:43:57;1.85;;;0.90;;
51312;SDS011;37397;53.226;10.400;2022-09-01T09:54:33;1.25;;;0.98;;
51312;SDS011;37397;53.226;10.400;2022-09-01T09:57:04;3.20;;;0.90;;
51312;SDS011;37397;53.226;10.400;2022-09-01T09:59:32;2.58;;;0.85;;
51312;SDS011;37397;53.226;10.400;2022-09-01T10:02:25;2.03;;;0.80;;
51312;SDS011;37397;53.226;10.400;2022-09-01T10:04:54;2.10;;;0.85;;
51312;SDS011;37397;53.226;10.400;2022-09-01T10:10:05;1.88;;;1.00;;
51312;SDS011;37397;53.226;10.400;2022-09-01T10:12:52;3.05;;;0.82;;
51312;SDS011;37397;53.226;10.400;2022-09-01T10:15:22;1.58;;;0.90;;
51312;SDS011;37397;53.226;10.400;2022-09-01T10:17:51;3.47;;;1.10;;
51312;SDS011;37397;53.226;10.400;2022-09-01T10:20:41;3.17;;;1.20;;
51312;SDS011;37397;53.226;10.400;2022-09-01T10:23:14;1.02;;;0.93;;
51312;SDS011;37397;53.226;10.400;2022-09-01T10:25:40;1.00;;;0.80;;
51312;SDS011;37397;53.226;10.400;2022-09-01T10:28:14;0.88;;;0.88;;
51312;SDS011;37397;53.226;10.400;2022-09-01T10:30:47;1.10;;;1.00;;
51312;SDS011;37397;53.226;10.400;2022-09-01T10:33:16;1.63;;;0.95;;
51312;SDS011;37397;53.226;10.400;2022-09-01T10:35:48;1.40;;;1.00;;
51312;SDS011;37397;53.226;10.400;2022-09-01T10:38:18;2.22;;;1.40;;
51312;SDS011;37397;53.226;10.400;2022-09-01T10:40:51;2.05;;;1.30;;
51312;SDS011;37397;53.226;10.400;2022-09-01T10:43:36;1.55;;;1.00;;
51312;SDS011;37397;53.226;10.400;2022-09-01T10:46:07;1.50;;;1.08;;
51312;SDS011;37397;53.226;10.400;2022-09-01T10:48:51;2.33;;;1.08;;
51312;SDS011;37397;53.226;10.400;2022-09-01T10:54:00;1.92;;;1.13;;
51312;SDS011;37397;53.226;10.400;2022-09-01T11:02:04;1.58;;;1.23;;
51312;SDS011;37397;53.226;10.400;2022-09-01T11:07:30;1.95;;;1.30;;
51312;SDS011;37397;53.226;10.400;2022-09-01T11:15:41;2.10;;;1.38;;
51312;SDS011;37397;53.226;10.400;2022-09-01T11:18:28;3.25;;;1.40;;
51312;SDS011;37397;53.226;10.400;2022-09-01T11:23:44;2.55;;;1.15;;
51312;SDS011;37397;53.226;10.400;2022-09-01T11:28:57;2.35;;;0.90;;
51312;SDS011;37397;53.226;10.400;2022-09-01T11:31:25;4.38;;;1.10;;
51312;SDS011;37397;53.226;10.400;2022-09-01T11:34:03;2.45;;;1.00;;
51312;SDS011;37397;53.226;10.400;2022-09-01T11:47:27;2.83;;;1.08;;
51312;SDS011;37397;53.226;10.400;2022-09-01T11:52:41;1.67;;;1.10;;
51312;SDS011;37397;53.226;10.400;2022-09-01T11:55:17;1.55;;;1.08;;
51312;SDS011;37397;53.226;10.400;2022-09-01T11:57:55;4.18;;;1.15;;
51312;SDS011;37397;53.226;10.400;2022-09-01T12:00:33;1.98;;;1.20;;
51312;SDS011;37397;53.226;10.400;2022-09-01T12:03:05;2.53;;;1.20;;
51312;SDS011;37397;53.226;10.400;2022-09-01T12:05:47;1.75;;;1.10;;
51312;SDS011;37397;53.226;10.400;2022-09-01T12:08:17;2.65;;;1.30;;
51312;SDS011;37397;53.226;10.400;2022-09-01T12:10:49;6.78;;;1.40;;
51312;SDS011;37397;53.226;10.400;2022-09-01T12:15:53;1.40;;;1.10;;
51312;SDS011;37397;53.226;10.400;2022-09-01T12:18:45;2.42;;;1.23;;
51312;SDS011;37397;53.226;10.400;2022-09-01T12:21:21;3.72;;;2.10;;
51312;SDS011;37397;53.226;10.400;2022-09-01T12:23:50;3.83;;;1.75;;
51312;SDS011;37397;53.226;10.400;2022-09-01T12:26:18;4.63;;;1.90;;
51312;SDS011;37397;53.226;10.400;2022-09-01T12:28:55;2.95;;;1.60;;
51312;SDS011;37397;53.226;10.400;2022-09-01T12:31:23;4.78;;;1.63;;
51312;SDS011;37397;53.226;10.400;2022-09-01T12:33:52;1.67;;;1.40;;
51312;SDS011;37397;53.226;10.400;2022-09-01T12:36:27;1.52;;;1.38;;
51312;SDS011;37397;53.226;10.400;2022-09-01T12:39:22;1.20;;;1.00;;
51312;SDS011;37397;53.226;10.400;2022-09-01T12:42:10;4.05;;;1.40;;
51312;SDS011;37397;53.226;10.400;2022-09-01T12:50:06;1.38;;;0.90;;
51312;SDS011;37397;53.226;10.400;2022-09-01T12:52:55;1.13;;;0.98;;
51312;SDS011;37397;53.226;10.400;2022-09-01T12:55:24;1.20;;;0.80;;
51312;SDS011;37397;53.226;10.400;2022-09-01T12:58:13;2.15;;;1.02;;
51312;SDS011;37397;53.226;10.400;2022-09-01T13:00:55;0.90;;;0.80;;
51312;SDS011;37397;53.226;10.400;2022-09-01T13:03:26;1.17;;;0.98;;
51312;SDS011;37397;53.226;10.400;2022-09-01T13:05:58;3.47;;;0.85;;
51312;SDS011;37397;53.226;10.400;2022-09-01T13:08:28;2.15;;;1.20;;
51312;SDS011;37397;53.226;10.400;2022-09-01T13:11:02;1.10;;;0.95;;
51312;SDS011;37397;53.226;10.400;2022-09-01T13:13:31;1.85;;;1.20;;
51312;SDS011;37397;53.226;10.400;2022-09-01T13:16:01;1.75;;;1.05;;
51312;SDS011;37397;53.226;10.400;2022-09-01T13:18:39;1.33;;;0.95;;
51312;SDS011;37397;53.226;10.400;2022-09-01T13:21:27;2.17;;;1.10;;
51312;SDS011;37397;53.226;10.400;2022-09-01T13:23:54;4.65;;;1.48;;
51312;SDS011;37397;53.226;10.400;2022-09-01T13:26:21;3.28;;;1.40;;
51312;SDS011;37397;53.226;10.400;2022-09-01T13:28:47;1.42;;;1.00;;
51312;SDS011;37397;53.226;10.400;2022-09-01T13:31:15;2.50;;;1.00;;
51312;SDS011;37397;53.226;10.400;2022-09-01T13:33:58;1.10;;;1.00;;
51312;SDS011;37397;53.226;10.400;2022-09-01T13:36:45;2.58;;;1.27;;
51312;SDS011;37397;53.226;10.400;2022-09-01T13:39:17;2.38;;;1.00;;
51312;SDS011;37397;53.226;10.400;2022-09-01T13:41:45;3.85;;;1.00;;
51312;SDS011;37397;53.226;10.400;2022-09-01T13:44:12;2.85;;;1.10;;
51312;SDS011;37397;53.226;10.400;2022-09-01T13:46:39;2.65;;;1.13;;
51312;SDS011;37397;53.226;10.400;2022-09-01T13:49:27;5.35;;;1.20;;
51312;SDS011;37397;53.226;10.400;2022-09-01T13:52:13;3.38;;;1.08;;
51312;SDS011;37397;53.226;10.400;2022-09-01T13:54:40;3.30;;;1.27;;
51312;SDS011;37397;53.226;10.400;2022-09-01T13:57:09;3.22;;;1.27;;
51312;SDS011;37397;53.226;10.400;2022-09-01T13:59:40;2.92;;;1.20;;
51312;SDS011;37397;53.226;10.400;2022-09-01T14:02:07;2.67;;;0.90;;
51312;SDS011;37397;53.226;10.400;2022-09-01T14:04:33;3.00;;;1.30;;
51312;SDS011;37397;53.226;10.400;2022-09-01T14:07:00;2.97;;;0.90;;
51312;SDS011;37397;53.226;10.400;2022-09-01T14:09:27;1.48;;;1.15;;
51312;SDS011;37397;53.226;10.400;2022-09-01T14:11:54;1.75;;;1.10;;
51312;SDS011;37397;53.226;10.400;2022-09-01T14:14:21;2.15;;;1.17;;
51312;SDS011;37397;53.226;10.400;2022-09-01T14:16:48;3.20;;;1.30;;
51312;SDS011;37397;53.226;10.400;2022-09-01T14:19:14;1.40;;;1.10;;
51312;SDS011;37397;53.226;10.400;2022-09-01T14:21:41;2.95;;;1.20;;
51312;SDS011;37397;53.226;10.400;2022-09-01T14:24:10;1.58;;;0.93;;
51312;SDS011;37397;53.226;10.400;2022-09-01T14:26:39;2.47;;;1.17;;
51312;SDS011;37397;53.226;10.400;2022-09-01T14:29:06;3.42;;;1.10;;
51312;SDS011;37397;53.226;10.400;2022-09-01T14:31:33;1.67;;;1.00;;
51312;SDS011;37397;53.226;10.400;2022-09-01T14:34:02;1.65;;;1.20;;
51312;SDS011;37397;53.226;10.400;2022-09-01T14:36:30;4.10;;;1.17;;
51312;SDS011;37397;53.226;10.400;2022-09-01T14:38:56;4.15;;;1.08;;
51312;SDS011;37397;53.226;10.400;2022-09-01T14:41:23;1.02;;;0.90;;
51312;SDS011;37397;53.226;10.400;2022-09-01T14:43:52;2.90;;;1.05;;
51312;SDS011;37397;53.226;10.400;2022-09-01T14:46:23;2.67;;;1.02;;
51312;SDS011;37397;53.226;10.400;2022-09-01T14:48:50;3.13;;;0.90;;
51312;SDS011;37397;53.226;10.400;2022-09-01T14:51:25;1.35;;;0.98;;
51312;SDS011;37397;53.226;10.400;2022-09-01T14:54:13;1.92;;;1.13;;
51312;SDS011;37397;53.226;10.400;2022-09-01T14:56:39;2.30;;;1.20;;
51312;SDS011;37397;53.226;10.400;2022-09-01T14:59:07;2.78;;;0.93;;
51312;SDS011;37397;53.226;10.400;2022-09-01T15:01:36;1.85;;;1.15;;
51312;SDS011;37397;53.226;10.400;2022-09-01T15:04:02;4.25;;;1.42;;
51312;SDS011;37397;53.226;10.400;2022-09-01T15:06:29;3.72;;;1.23;;
51312;SDS011;37397;53.226;10.400;2022-09-01T15:08:56;2.10;;;1.15;;
51312;SDS011;37397;53.226;10.400;2022-09-01T15:11:22;2.72;;;1.08;;
51312;SDS011;37397;53.226;10.400;2022-09-01T15:13:49;2.25;;;0.93;;
51312;SDS011;37397;53.226;10.400;2022-09-01T15:16:18;3.25;;;1.33;;
51312;SDS011;37397;53.226;10.400;2022-09-01T15:18:46;1.80;;;1.13;;
51312;SDS011;37397;53.226;10.400;2022-09-01T15:21:17;5.18;;;1.20;;
51312;SDS011;37397;53.226;10.400;2022-09-01T15:23:51;3.22;;;1.08;;
51312;SDS011;37397;53.226;10.400;2022-09-01T15:26:19;3.95;;;1.42;;
51312;SDS011;37397;53.226;10.400;2022-09-01T15:28:46;2.97;;;0.90;;
51312;SDS011;37397;53.226;10.400;2022-09-01T15:31:15;2.67;;;1.30;;
51312;SDS011;37397;53.226;10.400;2022-09-01T15:33:43;2.35;;;1.27;;
51312;SDS011;37397;53.226;10.400;2022-09-01T15:36:17;3.22;;;1.15;;
51312;SDS011;37397;53.226;10.400;2022-09-01T15:38:45;5.63;;;1.17;;
51312;SDS011;37397;53.226;10.400;2022-09-01T15:41:16;1.98;;;1.02;;
51312;SDS011;37397;53.226;10.400;2022-09-01T15:43:47;1.52;;;0.95;;
51312;SDS011;37397;53.226;10.400;2022-09-01T15:46:14;1.58;;;1.00;;
51312;SDS011;37397;53.226;10.400;2022-09-01T15:48:41;2.25;;;1.38;;
51312;SDS011;37397;53.226;10.400;2022-09-01T15:53:50;1.90;;;1.17;;
51312;SDS011;37397;53.226;10.400;2022-09-01T15:56:21;1.70;;;1.30;;
51312;SDS011;37397;53.226;10.400;2022-09-01T15:58:49;3.53;;;1.77;;
51312;SDS011;37397;53.226;10.400;2022-09-01T16:01:27;3.97;;;2.05;;
51312;SDS011;37397;53.226;10.400;2022-09-01T16:03:56;3.92;;;1.88;;
51312;SDS011;37397;53.226;10.400;2022-09-01T16:06:22;4.85;;;2.40;;
51312;SDS011;37397;53.226;10.400;2022-09-01T16:08:49;5.10;;;2.13;;
51312;SDS011;37397;53.226;10.400;2022-09-01T16:11:20;3.05;;;1.95;;
51312;SDS011;37397;53.226;10.400;2022-09-01T16:13:49;6.50;;;1.98;;
51312;SDS011;37397;53.226;10.400;2022-09-01T16:18:58;2.55;;;1.63;;
51312;SDS011;37397;53.226;10.400;2022-09-01T16:24:10;5.20;;;1.65;;
51312;SDS011;37397;53.226;10.400;2022-09-01T16:26:39;2.00;;;1.25;;
51312;SDS011;37397;53.226;10.400;2022-09-01T16:29:17;2.55;;;1.50;;